createdAt,value
2022-11-24T00:00:36.059Z,71.22
2022-11-24T00:01:36.048Z,73.64
2022-11-24T00:02:36.146Z,70.58
2022-11-24T00:03:36.164Z,72.99
2022-11-24T00:04:36.342Z,70.25
2022-11-24T00:05:36.017Z,71.38
2022-11-24T00:06:36.008Z,65.58
2022-11-24T00:07:36.099Z,71.38
2022-11-24T00:08:35.995Z,71.54
2022-11-24T00:09:35.997Z,72.03
2022-11-24T00:10:35.969Z,72.99
2022-11-24T00:11:35.976Z,72.03
2022-11-24T00:12:35.965Z,71.38
2022-11-24T00:13:35.959Z,70.90
2022-11-24T00:14:36.132Z,71.70
2022-11-24T00:15:36.929Z,72.67
2022-11-24T00:16:35.989Z,70.42
2022-11-24T00:17:35.910Z,70.42
2022-11-24T00:18:35.906Z,70.25
2022-11-24T00:19:35.905Z,67.68
2022-11-24T00:20:35.885Z,69.45
2022-11-24T00:21:35.873Z,69.77
2022-11-24T00:22:35.863Z,69.77
2022-11-24T00:23:35.862Z,69.77
2022-11-24T00:24:36.016Z,69.29
2022-11-24T00:25:35.839Z,68.16
2022-11-24T00:26:35.834Z,70.90
2022-11-24T00:27:35.818Z,72.35
2022-11-24T00:28:36.820Z,70.58
2022-11-24T00:29:35.804Z,73.32
2022-11-24T00:30:35.819Z,72.83
2022-11-24T00:31:35.875Z,70.74
2022-11-24T00:32:35.773Z,72.51
2022-11-24T00:33:35.765Z,70.25
2022-11-24T00:34:35.979Z,70.09
2022-11-24T00:35:35.747Z,71.87
2022-11-24T00:36:35.749Z,73.15
2022-11-24T00:37:35.746Z,73.48
2022-11-24T00:38:35.723Z,70.58
2022-11-24T00:39:35.723Z,73.80
2022-11-24T00:40:35.706Z,74.93
2022-11-24T00:41:35.693Z,68.64
2022-11-24T00:42:35.686Z,68.00
2022-11-24T00:43:35.679Z,69.45
2022-11-24T00:44:35.803Z,68.64
2022-11-24T00:45:35.700Z,72.03
2022-11-24T00:46:35.825Z,72.03
2022-11-24T00:47:35.639Z,69.45
2022-11-24T00:48:35.634Z,71.54
2022-11-24T00:49:35.632Z,70.25
2022-11-24T00:50:35.625Z,71.87
2022-11-24T00:51:35.606Z,70.58
2022-11-24T00:52:35.598Z,70.74
2022-11-24T00:53:35.590Z,70.09
2022-11-24T00:54:35.776Z,69.77
2022-11-24T00:55:35.569Z,69.93
2022-11-24T00:56:35.561Z,69.77
2022-11-24T00:57:35.553Z,71.06
2022-11-24T00:58:35.550Z,71.06
2022-11-24T00:59:35.546Z,67.19
2022-11-24T01:00:35.546Z,70.90
2022-11-24T01:01:35.615Z,69.13
2022-11-24T01:02:35.597Z,71.87
2022-11-24T01:03:35.501Z,71.38
2022-11-24T01:04:35.913Z,69.45
2022-11-24T01:05:35.477Z,68.32
2022-11-24T01:06:35.473Z,71.06
2022-11-24T01:07:35.486Z,70.90
2022-11-24T01:08:35.452Z,71.22
2022-11-24T01:09:35.471Z,73.15
2022-11-24T01:10:35.447Z,68.80
2022-11-24T01:11:35.428Z,70.58
2022-11-24T01:12:35.423Z,64.45
2022-11-24T01:13:35.413Z,72.67
2022-11-24T01:14:35.853Z,69.77
2022-11-24T01:15:35.434Z,65.90
2022-11-24T01:16:35.389Z,68.16
2022-11-24T01:17:35.377Z,71.54
2022-11-24T01:18:35.374Z,68.16
2022-11-24T01:19:35.373Z,69.77
2022-11-24T01:20:35.377Z,71.06
2022-11-24T01:21:35.349Z,72.03
2022-11-24T01:22:35.334Z,71.70
2022-11-24T01:23:35.324Z,68.64
2022-11-24T01:24:35.665Z,72.19
2022-11-24T01:25:35.303Z,70.58
2022-11-24T01:26:35.295Z,69.61
2022-11-24T01:27:35.285Z,74.12
2022-11-24T01:28:35.277Z,68.64
2022-11-24T01:29:35.284Z,71.06
2022-11-24T01:30:35.310Z,70.25
2022-11-24T01:31:35.250Z,72.51
2022-11-24T01:32:35.240Z,68.96
2022-11-24T01:33:35.232Z,72.51
2022-11-24T01:34:35.523Z,71.70
2022-11-24T01:35:35.211Z,70.25
2022-11-24T01:36:35.206Z,71.06
2022-11-24T01:37:35.197Z,75.25
2022-11-24T01:38:35.180Z,70.25
2022-11-24T01:39:36.190Z,70.42
2022-11-24T01:40:35.224Z,74.12
2022-11-24T01:41:35.162Z,72.35
2022-11-24T01:42:35.155Z,73.48
2022-11-24T01:43:35.141Z,67.51
2022-11-24T01:44:35.388Z,73.96
2022-11-24T01:45:35.130Z,70.25
2022-11-24T01:46:35.203Z,69.61
2022-11-24T01:47:35.110Z,68.16
2022-11-24T01:48:35.098Z,73.64
2022-11-24T01:49:35.100Z,72.83
2022-11-24T01:50:35.103Z,69.29
2022-11-24T01:51:35.072Z,68.96
2022-11-24T01:52:35.061Z,71.54
2022-11-24T01:53:35.052Z,71.70
2022-11-24T01:54:35.290Z,72.03
2022-11-24T01:55:35.037Z,70.74
2022-11-24T01:56:35.024Z,73.48
2022-11-24T01:57:35.019Z,71.06
2022-11-24T01:58:35.014Z,67.84
2022-11-24T01:59:35.013Z,68.16
2022-11-24T02:00:34.994Z,70.25
2022-11-24T02:01:35.055Z,71.06
2022-11-24T02:02:35.040Z,69.93
2022-11-24T02:03:34.969Z,71.54
2022-11-24T02:04:35.186Z,70.42
2022-11-24T02:05:34.949Z,71.87
2022-11-24T02:06:34.961Z,67.68
2022-11-24T02:07:34.961Z,69.13
2022-11-24T02:08:34.920Z,70.42
2022-11-24T02:09:34.947Z,71.38
2022-11-24T02:10:34.923Z,70.42
2022-11-24T02:11:34.888Z,71.22
2022-11-24T02:12:34.888Z,73.96
2022-11-24T02:13:34.873Z,71.06
2022-11-24T02:14:35.080Z,71.87
2022-11-24T02:15:34.897Z,68.96
2022-11-24T02:16:34.848Z,72.99
2022-11-24T02:17:34.853Z,70.42
2022-11-24T02:18:34.835Z,70.90
2022-11-24T02:19:34.833Z,70.25
2022-11-24T02:20:34.815Z,72.03
2022-11-24T02:21:34.825Z,70.90
2022-11-24T02:22:34.794Z,71.54
2022-11-24T02:23:34.785Z,69.61
2022-11-24T02:24:35.073Z,71.54
2022-11-24T02:25:34.765Z,70.90
2022-11-24T02:26:34.763Z,71.54
2022-11-24T02:27:34.745Z,69.45
2022-11-24T02:28:34.736Z,71.38
2022-11-24T02:29:34.742Z,71.87
2022-11-24T02:30:34.721Z,72.35
2022-11-24T02:31:34.748Z,73.96
2022-11-24T02:32:34.701Z,74.28
2022-11-24T02:33:34.690Z,72.67
2022-11-24T02:34:35.097Z,71.70
2022-11-24T02:35:34.679Z,69.45
2022-11-24T02:36:34.677Z,69.61
2022-11-24T02:37:34.659Z,72.67
2022-11-24T02:38:34.651Z,71.06
2022-11-24T02:39:34.653Z,72.35
2022-11-24T02:40:34.666Z,72.83
2022-11-24T02:41:34.620Z,73.48
2022-11-24T02:42:34.615Z,71.22
2022-11-24T02:43:34.609Z,71.87
2022-11-24T02:44:34.830Z,73.48
2022-11-24T02:45:34.586Z,72.51
2022-11-24T02:46:34.605Z,72.19
2022-11-24T02:47:34.567Z,72.19
2022-11-24T02:48:34.555Z,72.19
2022-11-24T02:49:34.563Z,72.51
2022-11-24T02:50:34.553Z,72.67
2022-11-24T02:51:34.536Z,72.99
2022-11-24T02:52:34.524Z,71.87
2022-11-24T02:53:34.516Z,74.44
2022-11-24T02:54:34.774Z,71.38
2022-11-24T02:55:34.499Z,71.70
2022-11-24T02:56:34.490Z,74.44
2022-11-24T02:57:34.486Z,72.83
2022-11-24T02:58:34.472Z,70.90
2022-11-24T02:59:34.553Z,72.35
2022-11-24T03:00:34.459Z,70.09
2022-11-24T03:01:34.527Z,71.87
2022-11-24T03:02:34.455Z,69.45
2022-11-24T03:03:35.423Z,73.80
2022-11-24T03:04:34.658Z,71.22
2022-11-24T03:05:34.407Z,70.90
2022-11-24T03:06:34.400Z,75.09
2022-11-24T03:07:34.425Z,73.15
2022-11-24T03:08:34.382Z,73.15
2022-11-24T03:09:34.384Z,74.93
2022-11-24T03:10:34.384Z,75.25
2022-11-24T03:11:34.357Z,70.90
2022-11-24T03:12:34.364Z,75.25
2022-11-24T03:13:34.338Z,75.73
2022-11-24T03:14:34.486Z,74.12
2022-11-24T03:15:34.386Z,70.58
2022-11-24T03:16:34.315Z,74.77
2022-11-24T03:17:34.307Z,72.99
2022-11-24T03:18:34.292Z,73.48
2022-11-24T03:19:34.298Z,74.93
2022-11-24T03:20:34.323Z,73.48
2022-11-24T03:21:34.266Z,74.60
2022-11-24T03:22:34.257Z,74.44
2022-11-24T03:23:34.251Z,71.54
2022-11-24T03:24:34.590Z,71.06
2022-11-24T03:25:34.225Z,71.70
2022-11-24T03:26:34.222Z,72.99
2022-11-24T03:27:34.213Z,74.60
2022-11-24T03:28:34.197Z,72.51
2022-11-24T03:29:35.207Z,73.32
2022-11-24T03:30:34.225Z,74.60
2022-11-24T03:31:34.243Z,71.38
2022-11-24T03:32:34.176Z,69.93
2022-11-24T03:33:34.163Z,72.99
2022-11-24T03:34:34.450Z,72.51
2022-11-24T03:35:34.146Z,75.89
2022-11-24T03:36:34.146Z,72.83
2022-11-24T03:37:34.128Z,74.28
2022-11-24T03:38:34.117Z,74.28
2022-11-24T03:39:34.120Z,72.19
2022-11-24T03:40:34.100Z,73.32
2022-11-24T03:41:34.092Z,74.93
2022-11-24T03:42:34.084Z,76.86
2022-11-24T03:43:37.827Z,74.77
2022-11-24T03:44:35.350Z,74.44
2022-11-24T03:45:49.312Z,75.41
2022-11-24T03:46:38.682Z,73.64
2022-11-24T03:47:34.042Z,74.60
2022-11-24T03:48:34.037Z,76.05
2022-11-24T03:49:34.302Z,72.51
2022-11-24T03:50:34.012Z,74.12
2022-11-24T03:51:34.005Z,74.93
2022-11-24T03:52:33.996Z,74.77
2022-11-24T03:53:34.008Z,75.41
2022-11-24T03:54:34.454Z,74.28
2022-11-24T03:55:33.971Z,74.93
2022-11-24T03:56:33.961Z,76.05
2022-11-24T03:57:33.951Z,74.44
2022-11-24T03:58:33.949Z,74.60
2022-11-24T03:59:33.942Z,75.25
2022-11-24T04:00:33.924Z,73.96
2022-11-24T04:01:33.996Z,73.48
2022-11-24T04:02:33.951Z,73.64
2022-11-24T04:03:33.896Z,74.60
2022-11-24T04:04:33.991Z,73.32
2022-11-24T04:05:33.874Z,74.77
2022-11-24T04:06:33.871Z,72.03
2022-11-24T04:07:33.906Z,73.15
2022-11-24T04:08:33.856Z,71.70
2022-11-24T04:09:33.851Z,72.03
2022-11-24T04:10:33.836Z,72.99
2022-11-24T04:11:33.828Z,75.25
2022-11-24T04:12:33.823Z,72.99
2022-11-24T04:13:33.813Z,73.48
2022-11-24T04:14:34.080Z,74.12
2022-11-24T04:15:33.789Z,72.99
2022-11-24T04:16:33.851Z,72.03
2022-11-24T04:17:33.773Z,73.80
2022-11-24T04:18:33.764Z,70.58
2022-11-24T04:19:33.769Z,73.80
2022-11-24T04:20:33.751Z,73.64
2022-11-24T04:21:33.734Z,74.77
2022-11-24T04:22:33.748Z,73.64
2022-11-24T04:23:33.720Z,72.67
2022-11-24T04:24:34.062Z,73.32
2022-11-24T04:25:33.717Z,74.12
2022-11-24T04:26:33.696Z,74.44
2022-11-24T04:27:33.686Z,72.99
2022-11-24T04:28:33.676Z,71.70
2022-11-24T04:29:33.685Z,73.96
2022-11-24T04:30:33.669Z,74.60
2022-11-24T04:31:33.670Z,73.64
2022-11-24T04:32:33.642Z,72.99
2022-11-24T04:33:33.637Z,71.22
2022-11-24T04:34:33.878Z,72.03
2022-11-24T04:35:33.623Z,72.99
2022-11-24T04:36:33.605Z,74.44
2022-11-24T04:37:33.592Z,72.67
2022-11-24T04:39:25.672Z,74.44
2022-11-24T04:39:34.574Z,74.44
2022-11-24T04:40:33.578Z,75.09
2022-11-24T04:41:33.557Z,74.44
2022-11-24T04:42:33.548Z,75.41
2022-11-24T04:43:39.164Z,74.12
2022-11-24T04:44:36.088Z,72.51
2022-11-24T04:45:33.533Z,75.73
2022-11-24T04:46:33.597Z,76.38
2022-11-24T04:47:33.518Z,74.12
2022-11-24T04:48:33.500Z,75.09
2022-11-24T04:49:33.495Z,77.67
2022-11-24T04:50:33.496Z,78.47
2022-11-24T04:51:33.484Z,76.54
2022-11-24T04:52:33.467Z,78.31
2022-11-24T04:53:33.463Z,75.25
2022-11-24T04:54:33.760Z,75.09
2022-11-24T04:55:33.455Z,72.67
2022-11-24T04:56:33.434Z,78.31
2022-11-24T04:57:33.429Z,72.67
2022-11-24T04:58:33.419Z,75.57
2022-11-24T04:59:33.405Z,75.09
2022-11-24T05:00:33.408Z,73.48
2022-11-24T05:01:33.419Z,73.80
2022-11-24T05:02:33.377Z,73.64
2022-11-24T05:03:33.366Z,75.09
2022-11-24T05:04:33.640Z,74.77
2022-11-24T05:05:33.365Z,73.80
2022-11-24T05:06:33.335Z,75.73
2022-11-24T05:07:33.481Z,76.54
2022-11-24T05:08:33.331Z,75.25
2022-11-24T05:09:58.164Z,73.48
2022-11-24T05:10:35.376Z,76.54
2022-11-24T05:11:33.294Z,75.73
2022-11-24T05:12:33.285Z,76.70
2022-11-24T05:13:33.270Z,76.70
2022-11-24T05:14:33.559Z,77.50
2022-11-24T05:15:33.271Z,76.38
2022-11-24T05:16:33.274Z,77.18
2022-11-24T05:17:33.269Z,73.96
2022-11-24T05:18:33.235Z,73.64
2022-11-24T05:19:33.221Z,72.51
2022-11-24T05:20:33.231Z,75.57
2022-11-24T05:21:33.209Z,74.28
2022-11-24T05:22:33.198Z,74.93
2022-11-24T05:23:33.185Z,74.12
2022-11-24T05:24:33.523Z,75.89
2022-11-24T05:25:33.197Z,76.54
2022-11-24T05:26:33.164Z,76.54
2022-11-24T05:27:33.156Z,75.73
2022-11-24T05:28:33.143Z,72.83
2022-11-24T05:29:33.135Z,73.48
2022-11-24T05:30:33.145Z,77.83
2022-11-24T05:31:33.149Z,76.22
2022-11-24T05:32:33.116Z,76.38
2022-11-24T05:33:33.105Z,76.38
2022-11-24T05:34:33.302Z,74.12
2022-11-24T05:35:33.097Z,73.96
2022-11-24T05:36:33.074Z,73.64
2022-11-24T05:37:33.067Z,74.28
2022-11-24T05:38:33.076Z,72.99
2022-11-24T05:39:33.046Z,72.67
2022-11-24T05:40:33.054Z,73.80
2022-11-24T05:41:33.029Z,74.12
2022-11-24T05:42:33.027Z,73.96
2022-11-24T05:43:33.022Z,75.09
2022-11-24T05:44:33.269Z,75.89
2022-11-24T05:45:33.006Z,74.77
2022-11-24T05:46:33.042Z,75.41
2022-11-24T05:47:32.980Z,75.89
2022-11-24T05:48:32.967Z,73.80
2022-11-24T05:49:32.958Z,75.73
2022-11-24T05:50:32.955Z,74.28
2022-11-24T05:51:32.932Z,72.83
2022-11-24T05:52:32.926Z,72.83
2022-11-24T05:53:32.912Z,75.41
2022-11-24T05:54:33.185Z,75.57
2022-11-24T05:55:32.908Z,74.60
2022-11-24T05:56:32.896Z,73.64
2022-11-24T05:57:32.879Z,75.73
2022-11-24T05:58:32.875Z,74.60
2022-11-24T05:59:32.864Z,74.28
2022-11-24T06:00:32.868Z,75.73
2022-11-24T06:01:32.869Z,76.54
2022-11-24T06:02:32.965Z,77.50
2022-11-24T06:03:32.830Z,76.38
2022-11-24T06:04:33.283Z,73.96
2022-11-24T06:05:32.820Z,76.70
2022-11-24T06:06:32.804Z,75.73
2022-11-24T06:07:32.865Z,75.57
2022-11-24T06:08:32.783Z,77.83
2022-11-24T06:09:32.776Z,76.38
2022-11-24T06:10:32.777Z,77.34
2022-11-24T06:11:32.752Z,77.18
2022-11-24T06:12:32.747Z,76.22
2022-11-24T06:13:32.819Z,75.41
2022-11-24T06:14:33.043Z,75.25
2022-11-24T06:15:32.727Z,76.38
2022-11-24T06:16:32.727Z,76.05
2022-11-24T06:17:33.701Z,74.77
2022-11-24T06:18:32.689Z,77.34
2022-11-24T06:19:32.681Z,75.57
2022-11-24T06:20:33.235Z,76.86
2022-11-24T06:21:33.663Z,76.22
2022-11-24T06:22:32.652Z,77.18
2022-11-24T06:23:32.644Z,75.73
2022-11-24T06:24:32.944Z,76.70
2022-11-24T06:25:32.638Z,75.57
2022-11-24T06:26:32.618Z,74.28
2022-11-24T06:27:32.611Z,75.89
2022-11-24T06:28:32.601Z,75.73
2022-11-24T06:29:32.593Z,75.73
2022-11-24T06:30:32.614Z,76.70
2022-11-24T06:31:32.637Z,74.12
2022-11-24T06:32:32.556Z,74.60
2022-11-24T06:33:32.556Z,73.80
2022-11-24T06:34:33.017Z,74.77
2022-11-24T06:35:32.558Z,75.73
2022-11-24T06:36:32.536Z,74.93
2022-11-24T06:37:32.518Z,76.22
2022-11-24T06:38:32.510Z,76.05
2022-11-24T06:39:32.498Z,76.70
2022-11-24T06:40:32.502Z,74.77
2022-11-24T06:41:32.484Z,79.28
2022-11-24T06:42:32.471Z,77.99
2022-11-24T06:43:32.466Z,77.34
2022-11-24T06:44:32.944Z,76.22
2022-11-24T06:45:32.523Z,77.18
2022-11-24T06:46:32.441Z,76.38
2022-11-24T06:47:32.429Z,77.67
2022-11-24T06:48:32.421Z,77.50
2022-11-24T06:49:32.417Z,78.63
2022-11-24T06:50:33.856Z,77.34
2022-11-24T06:51:33.405Z,76.86
2022-11-24T06:52:32.492Z,78.31
2022-11-24T06:53:32.375Z,76.70
2022-11-24T06:54:32.802Z,75.41
2022-11-24T06:55:32.385Z,75.25
2022-11-24T06:56:32.369Z,77.50
2022-11-24T06:57:32.350Z,76.70
2022-11-24T06:58:32.383Z,76.05
2022-11-24T06:59:32.325Z,74.60
2022-11-24T07:00:32.330Z,77.50
2022-11-24T07:01:32.378Z,76.22
2022-11-24T07:02:32.482Z,76.54
2022-11-24T07:03:32.435Z,77.18
2022-11-24T07:04:32.768Z,78.79
2022-11-24T07:05:32.285Z,78.63
2022-11-24T07:06:32.269Z,76.38
2022-11-24T07:07:32.329Z,77.99
2022-11-24T07:08:32.262Z,75.73
2022-11-24T07:09:32.241Z,73.96
2022-11-24T07:10:32.248Z,74.60
2022-11-24T07:11:32.259Z,75.09
2022-11-24T07:12:32.223Z,74.93
2022-11-24T07:13:32.217Z,76.22
2022-11-24T07:14:32.424Z,74.60
2022-11-24T07:15:32.218Z,72.67
2022-11-24T07:16:32.241Z,74.77
2022-11-24T07:17:32.177Z,76.05
2022-11-24T07:18:32.166Z,75.57
2022-11-24T07:19:32.159Z,74.12
2022-11-24T07:20:32.149Z,75.25
2022-11-24T07:21:32.154Z,74.12
2022-11-24T07:22:32.233Z,76.54
2022-11-24T07:23:32.127Z,76.38
2022-11-24T07:24:32.445Z,75.73
2022-11-24T07:25:32.152Z,76.05
2022-11-24T07:26:32.105Z,75.89
2022-11-24T07:27:32.089Z,73.48
2022-11-24T07:28:32.081Z,74.77
2022-11-24T07:29:32.154Z,75.25
2022-11-24T07:30:32.071Z,75.25
2022-11-24T07:31:32.109Z,75.57
2022-11-24T07:32:32.180Z,76.38
2022-11-24T07:33:32.036Z,79.76
2022-11-24T07:34:32.371Z,75.73
2022-11-24T07:35:32.186Z,72.51
2022-11-24T07:36:32.192Z,76.86
2022-11-24T07:37:32.152Z,75.73
2022-11-24T07:38:32.027Z,77.83
2022-11-24T07:39:32.016Z,75.73
2022-11-24T07:40:31.979Z,75.57
2022-11-24T07:41:31.978Z,77.50
2022-11-24T07:42:31.960Z,77.50
2022-11-24T07:43:31.968Z,77.50
2022-11-24T07:44:32.069Z,76.05
2022-11-24T07:45:31.991Z,77.02
2022-11-24T07:46:31.934Z,75.41
2022-11-24T07:47:31.919Z,75.25
2022-11-24T07:48:31.898Z,76.70
2022-11-24T07:49:32.896Z,78.15
2022-11-24T07:50:31.896Z,77.67
2022-11-24T07:51:31.891Z,74.12
2022-11-24T07:52:31.873Z,74.44
2022-11-24T07:53:31.863Z,76.70
2022-11-24T07:54:32.038Z,75.25
2022-11-24T07:55:31.852Z,74.44
2022-11-24T07:56:31.845Z,75.09
2022-11-24T07:57:31.846Z,74.93
2022-11-24T07:58:32.982Z,73.80
2022-11-24T07:59:32.814Z,72.99
2022-11-24T08:00:31.801Z,74.44
2022-11-24T08:01:31.908Z,73.80
2022-11-24T08:02:31.780Z,73.96
2022-11-24T08:03:31.966Z,73.80
2022-11-24T08:04:31.935Z,74.60
2022-11-24T08:05:31.758Z,72.19
2022-11-24T08:06:40.697Z,71.54
2022-11-24T08:07:33.784Z,73.80
2022-11-24T08:08:31.734Z,72.51
2022-11-24T08:09:31.724Z,72.51
2022-11-24T08:10:31.712Z,73.15
2022-11-24T08:11:31.762Z,72.51
2022-11-24T08:12:31.822Z,73.80
2022-11-24T08:13:31.684Z,73.96
2022-11-24T08:14:31.946Z,74.28
2022-11-24T08:15:31.826Z,72.67
2022-11-24T08:16:31.794Z,73.48
2022-11-24T08:17:31.716Z,73.96
2022-11-24T08:18:31.654Z,73.32
2022-11-24T08:19:31.634Z,74.60
2022-11-24T08:20:31.622Z,74.12
2022-11-24T08:21:31.618Z,73.32
2022-11-24T08:22:31.604Z,72.67
2022-11-24T08:23:31.595Z,71.38
2022-11-24T08:24:31.939Z,74.93
2022-11-24T08:25:31.595Z,74.28
2022-11-24T08:26:31.576Z,73.32
2022-11-24T08:27:31.563Z,73.96
2022-11-24T08:28:31.638Z,72.19
2022-11-24T08:29:31.543Z,74.44
2022-11-24T08:30:31.535Z,73.80
2022-11-24T08:31:31.586Z,72.99
2022-11-24T08:32:31.523Z,73.64
2022-11-24T08:33:31.506Z,70.58
2022-11-24T08:34:31.770Z,73.32
2022-11-24T08:35:31.497Z,72.19
2022-11-24T08:36:31.495Z,72.99
2022-11-24T08:37:31.472Z,73.48
2022-11-24T08:38:31.462Z,72.35
2022-11-24T08:39:31.486Z,73.96
2022-11-24T08:40:31.453Z,73.80
2022-11-24T08:41:31.468Z,73.64
2022-11-24T08:42:31.426Z,72.83
2022-11-24T08:43:31.419Z,72.35
2022-11-24T08:44:31.468Z,72.99
2022-11-24T08:45:34.305Z,72.51
2022-11-24T08:46:32.489Z,72.03
2022-11-24T08:47:31.385Z,72.35
2022-11-24T08:48:31.375Z,72.99
2022-11-24T08:49:31.363Z,74.28
2022-11-24T08:50:31.506Z,72.03
2022-11-24T08:51:31.398Z,72.83
2022-11-24T08:52:31.339Z,74.77
2022-11-24T08:53:31.343Z,71.22
2022-11-24T08:54:31.417Z,72.51
2022-11-24T08:55:31.306Z,70.25
2022-11-24T08:56:31.313Z,72.19
2022-11-24T08:57:31.291Z,71.87
2022-11-24T08:58:31.290Z,72.35
2022-11-24T08:59:31.410Z,77.67
2022-11-24T09:00:31.261Z,73.15
2022-11-24T09:01:31.356Z,71.54
2022-11-24T09:02:31.239Z,72.51
2022-11-24T09:03:31.232Z,71.87
2022-11-24T09:04:31.268Z,72.51
2022-11-24T09:06:00.023Z,70.90
2022-11-24T09:06:33.216Z,73.48
2022-11-24T09:07:31.277Z,73.48
2022-11-24T09:08:31.179Z,72.51
2022-11-24T09:09:31.173Z,72.83
2022-11-24T09:10:31.165Z,71.87
2022-11-24T09:11:31.163Z,72.51
2022-11-24T09:12:31.146Z,71.22
2022-11-24T09:13:31.139Z,71.87
2022-11-24T09:14:31.379Z,71.38
2022-11-24T09:15:31.113Z,71.54
2022-11-24T09:16:31.155Z,72.03
2022-11-24T09:17:31.104Z,71.87
2022-11-24T09:18:31.088Z,70.09
2022-11-24T09:19:31.170Z,74.12
2022-11-24T09:20:31.066Z,72.51
2022-11-24T09:21:31.075Z,73.15
2022-11-24T09:22:31.045Z,72.99
2022-11-24T09:23:31.038Z,71.87
2022-11-24T09:24:31.024Z,70.25
2022-11-24T09:25:31.046Z,71.06
2022-11-24T09:26:31.026Z,71.70
2022-11-24T09:27:30.996Z,70.58
2022-11-24T09:28:30.994Z,72.83
2022-11-24T09:29:31.001Z,69.77
2022-11-24T09:30:31.055Z,69.93
2022-11-24T09:31:31.035Z,67.84
2022-11-24T09:32:30.949Z,69.93
2022-11-24T09:33:30.948Z,69.45
2022-11-24T09:34:30.938Z,70.42
2022-11-24T09:35:30.925Z,70.74
2022-11-24T09:36:30.926Z,70.74
2022-11-24T09:37:32.804Z,69.77
2022-11-24T09:38:31.891Z,70.25
2022-11-24T09:39:30.889Z,69.77
2022-11-24T09:40:30.878Z,71.06
2022-11-24T09:41:30.876Z,70.42
2022-11-24T09:42:30.866Z,72.03
2022-11-24T09:43:30.876Z,69.29
2022-11-24T09:44:30.843Z,71.70
2022-11-24T09:46:03.333Z,71.22
2022-11-24T09:46:32.955Z,73.48
2022-11-24T09:47:30.921Z,69.93
2022-11-24T09:48:30.801Z,72.51
2022-11-24T09:49:30.798Z,70.74
2022-11-24T09:50:30.783Z,69.93
2022-11-24T09:51:30.782Z,69.93
2022-11-24T09:52:30.762Z,71.38
2022-11-24T09:53:30.750Z,70.90
2022-11-24T09:54:30.744Z,74.77
2022-11-24T09:55:30.731Z,70.74
2022-11-24T09:56:30.730Z,72.19
2022-11-24T09:57:35.808Z,72.19
2022-11-24T09:58:32.708Z,69.61
2022-11-24T09:59:30.688Z,70.58
2022-11-24T10:00:30.666Z,72.83
2022-11-24T10:01:31.747Z,73.48
2022-11-24T10:02:30.657Z,70.74
2022-11-24T10:03:30.647Z,72.83
2022-11-24T10:04:30.805Z,70.25
2022-11-24T10:05:30.633Z,71.06
2022-11-24T10:06:30.639Z,72.03
2022-11-24T10:07:30.682Z,71.70
2022-11-24T10:08:30.607Z,72.03
2022-11-24T10:09:30.599Z,71.06
2022-11-24T10:10:30.598Z,68.64
2022-11-24T10:11:30.591Z,69.45
2022-11-24T10:12:30.572Z,70.58
2022-11-24T10:13:30.577Z,71.38
2022-11-24T10:14:30.612Z,71.22
2022-11-24T10:15:30.596Z,70.90
2022-11-24T10:16:30.587Z,70.74
2022-11-24T10:17:30.525Z,69.61
2022-11-24T10:18:30.519Z,70.90
2022-11-24T10:19:37.019Z,69.29
2022-11-24T10:20:32.500Z,69.13
2022-11-24T10:21:30.502Z,69.29
2022-11-24T10:22:30.479Z,68.96
2022-11-24T10:23:31.314Z,69.93
2022-11-24T10:24:30.456Z,70.74
2022-11-24T10:25:30.449Z,70.90
2022-11-24T10:26:30.446Z,70.25
2022-11-24T10:27:30.427Z,70.90
2022-11-24T10:28:30.416Z,70.58
2022-11-24T10:29:30.408Z,68.16
2022-11-24T10:30:30.396Z,72.19
2022-11-24T10:31:30.464Z,68.80
2022-11-24T10:32:30.377Z,69.93
2022-11-24T10:33:31.112Z,68.96
2022-11-24T10:34:31.397Z,69.45
2022-11-24T10:35:30.379Z,66.87
2022-11-24T10:36:30.355Z,67.84
2022-11-24T10:37:30.413Z,67.35
2022-11-24T10:38:30.319Z,68.96
2022-11-24T10:39:30.312Z,67.03
2022-11-24T10:40:56.007Z,66.87
2022-11-24T10:41:32.305Z,69.13
2022-11-24T10:42:30.281Z,70.90
2022-11-24T10:43:30.268Z,69.29
2022-11-24T10:44:31.342Z,69.93
2022-11-24T10:45:30.251Z,67.68
2022-11-24T10:46:33.661Z,69.93
2022-11-24T10:47:32.237Z,68.32
2022-11-24T10:48:30.225Z,69.93
2022-11-24T10:49:30.324Z,69.45
2022-11-24T10:50:30.206Z,67.19
2022-11-24T10:51:30.211Z,67.68
2022-11-24T10:52:30.181Z,70.58
2022-11-24T10:53:30.198Z,69.93
2022-11-24T10:54:30.177Z,70.90
2022-11-24T10:55:30.199Z,70.09
2022-11-24T10:56:30.159Z,70.74
2022-11-24T10:57:30.179Z,70.58
2022-11-24T10:58:35.869Z,70.42
2022-11-24T10:59:32.560Z,68.48
2022-11-24T11:00:30.123Z,68.48
2022-11-24T11:01:30.253Z,68.96
2022-11-24T11:02:30.237Z,68.96
2022-11-24T11:03:30.122Z,69.93
2022-11-24T11:04:30.078Z,70.90
2022-11-24T11:05:30.070Z,70.25
2022-11-24T11:06:30.093Z,69.61
2022-11-24T11:07:30.100Z,71.54
2022-11-24T11:08:30.045Z,67.84
2022-11-24T11:09:30.029Z,68.96
2022-11-24T11:10:30.024Z,68.64
2022-11-24T11:11:30.100Z,68.00
2022-11-24T11:12:44.993Z,69.45
2022-11-24T11:13:31.996Z,67.68
2022-11-24T11:14:29.982Z,70.58
2022-11-24T11:15:30.107Z,67.51
2022-11-24T11:16:30.016Z,66.87
2022-11-24T11:17:29.987Z,67.84
2022-11-24T11:18:29.969Z,68.00
2022-11-24T11:20:31.931Z,66.55
2022-11-24T11:21:29.982Z,67.51
2022-11-24T11:22:29.948Z,68.00
2022-11-24T11:23:29.969Z,68.00
2022-11-24T11:24:29.897Z,68.80
2022-11-24T11:25:29.937Z,70.74
2022-11-24T11:26:29.968Z,71.87
2022-11-24T11:27:29.866Z,69.77
2022-11-24T11:28:29.903Z,68.32
2022-11-24T11:31:31.834Z,69.93
2022-11-24T11:34:31.793Z,68.96
2022-11-24T11:35:29.776Z,70.42
2022-11-24T11:36:29.768Z,70.42
2022-11-24T11:37:29.767Z,68.16
2022-11-24T11:38:29.760Z,69.13
2022-11-24T11:39:29.736Z,70.42
2022-11-24T11:40:29.749Z,69.77
2022-11-24T11:41:29.742Z,70.58
2022-11-24T11:43:00.823Z,71.87
2022-11-24T11:43:31.699Z,70.58
2022-11-24T11:44:29.691Z,70.42
2022-11-24T11:45:29.688Z,70.42
2022-11-24T11:46:29.703Z,69.93
2022-11-24T11:47:29.658Z,70.58
2022-11-24T11:48:32.484Z,72.19
2022-11-24T11:49:30.629Z,71.22
2022-11-24T11:50:29.640Z,68.64
2022-11-24T11:51:29.795Z,68.32
2022-11-24T11:52:29.619Z,71.54
2022-11-24T11:53:29.591Z,71.87
2022-11-24T11:54:29.580Z,70.09
2022-11-24T11:55:29.569Z,68.48
2022-11-24T11:56:29.570Z,71.06
2022-11-24T11:57:29.564Z,69.77
2022-11-24T11:58:29.556Z,68.16
2022-11-24T11:59:29.537Z,69.45
2022-11-24T12:00:29.526Z,66.87
2022-11-24T12:01:29.516Z,69.29
2022-11-24T12:02:29.665Z,70.74
2022-11-24T12:03:29.594Z,68.96
2022-11-24T12:04:29.496Z,67.51
2022-11-24T12:05:29.481Z,68.64
2022-11-24T12:06:29.471Z,66.39
2022-11-24T12:07:29.516Z,66.39
2022-11-24T12:08:31.321Z,66.55
2022-11-24T12:09:30.445Z,68.96
2022-11-24T12:10:29.433Z,70.58
2022-11-24T12:11:29.432Z,68.48
2022-11-24T12:12:29.434Z,66.23
2022-11-24T12:13:29.412Z,68.16
2022-11-24T12:14:29.402Z,68.80
2022-11-24T12:15:29.393Z,69.29
2022-11-24T12:16:29.447Z,67.19
2022-11-24T12:17:29.379Z,68.32
2022-11-24T12:18:56.572Z,68.32
2022-11-24T12:19:31.436Z,68.48
2022-11-24T12:20:29.339Z,68.80
2022-11-24T12:21:29.464Z,65.42
2022-11-24T12:22:29.330Z,66.39
2022-11-24T12:23:29.295Z,69.45
2022-11-24T12:24:30.343Z,67.19
2022-11-24T12:25:29.283Z,67.84
2022-11-24T12:26:29.277Z,63.33
2022-11-24T12:27:29.283Z,63.33
2022-11-24T12:28:29.289Z,63.81
2022-11-24T12:29:29.240Z,63.00
2022-11-24T12:30:30.245Z,63.16
2022-11-24T12:31:29.261Z,65.42
2022-11-24T12:32:29.227Z,67.19
2022-11-24T12:33:29.209Z,63.16
2022-11-24T12:34:29.241Z,62.04
2022-11-24T12:35:29.188Z,62.20
2022-11-24T12:36:29.175Z,63.00
2022-11-24T12:37:29.178Z,63.00
2022-11-24T12:38:29.157Z,61.07
2022-11-24T12:39:29.153Z,62.68
2022-11-24T12:40:29.142Z,62.52
2022-11-24T12:41:44.448Z,61.07
2022-11-24T12:42:31.126Z,61.39
2022-11-24T12:43:29.112Z,64.94
2022-11-24T12:44:29.092Z,61.07
2022-11-24T12:45:29.132Z,63.00
2022-11-24T12:46:29.130Z,63.16
2022-11-24T12:47:29.141Z,62.84
2022-11-24T12:48:29.079Z,59.78
2022-11-24T12:49:29.044Z,63.49
2022-11-24T12:50:29.065Z,63.16
2022-11-24T12:51:29.024Z,63.97
2022-11-24T12:52:29.027Z,63.65
2022-11-24T12:53:28.994Z,61.71
2022-11-24T12:54:29.997Z,61.71
2022-11-24T12:55:28.985Z,59.46
2022-11-24T12:56:28.974Z,62.84
2022-11-24T12:57:28.973Z,61.07